Lincoln, Montana
Current Conditions -  °F | °C
As of 10:53 PM on Saturday 22 Nov 2014 (Local Time) from KHLN Reporting Station
Few Clouds Few Clouds  
Wind Chill: 27°   Ceiling: Unl
Heat Index: 36°   Visibility: 10mi
Dew Point: 22°   Wind: 14mph
Humidity: 57%   Direction: 270°W
Pressure: 29.72"   Gusts: NA
Location:  46.95°N, 112.68°W
Report Text: KHLN 230553Z AUTO 27012KT 10SM FEW045 02/M06 A2972 RMK AO2 SLP088 T00221056 10044 20011 53024
Loading
Personal Weather Stations






























Interactive Weather Map New forecast layout! Learn more

10-Day Weather Forecast

Advertisements
Track Severe Weather on mobile